Time;durP1;ratioP1;P1;durP2;ratioP2;P2;SDS_P1;SDS_P2;PMS_P1;PMS_P2;Temp;Humidity;BMP_temperature;BMP_pressure;BME280_temperature;BME280_humidity;BME280_pressure;Samples;Min_cycle;Max_cycle;Signal;HPM_P1;HPM_P2
2022/05/12 00:01:50;;;;;;;12.68;3.78;;;;;;;;;;5072197;28;20041;-77
2022/05/12 00:04:16;;;;;;;9.73;4.00;;;;;;;;;;5055249;28;20481;-78
2022/05/12 00:06:42;;;;;;;13.73;4.40;;;;;;;;;;5071834;28;20523;-77
2022/05/12 00:09:08;;;;;;;9.38;3.03;;;;;;;;;;5054926;28;20493;-74
2022/05/12 00:11:34;;;;;;;7.03;3.13;;;;;;;;;;5071756;28;20051;-74
2022/05/12 00:14:00;;;;;;;8.10;2.53;;;;;;;;;;5055506;28;20461;-73
2022/05/12 00:16:26;;;;;;;6.07;2.47;;;;;;;;;;5054964;28;20044;-74
2022/05/12 00:18:52;;;;;;;5.85;2.20;;;;;;;;;;5055321;28;20127;-74
2022/05/12 00:21:18;;;;;;;15.77;2.30;;;;;;;;;;5055115;28;20051;-73
2022/05/12 00:23:56;;;;;;;10.45;2.10;;;;;;;;;;5071668;28;20611;-74
2022/05/12 00:26:26;;;;;;;10.88;1.88;;;;;;;;;;5071781;28;20056;-74
2022/05/12 00:28:52;;;;;;;7.55;1.83;;;;;;;;;;5055231;28;20029;-74
2022/05/12 00:31:19;;;;;;;6.18;2.03;;;;;;;;;;5055052;28;20068;-74
2022/05/12 00:33:45;;;;;;;7.40;2.05;;;;;;;;;;5072134;28;20040;-74
2022/05/12 00:36:12;;;;;;;4.93;2.08;;;;;;;;;;5054787;28;20127;-74
2022/05/12 00:38:38;;;;;;;8.05;2.10;;;;;;;;;;5071684;28;20040;-74
2022/05/12 00:41:04;;;;;;;6.85;2.28;;;;;;;;;;5071895;28;20444;-73
2022/05/12 00:43:33;;;;;;;13.48;2.28;;;;;;;;;;5071461;28;20044;-74
2022/05/12 00:45:59;;;;;;;9.57;2.45;;;;;;;;;;5071848;28;20048;-74
2022/05/12 00:48:26;;;;;;;6.45;2.53;;;;;;;;;;5071485;28;20047;-74
2022/05/12 00:50:52;;;;;;;8.95;2.45;;;;;;;;;;5071788;28;20116;-74
2022/05/12 00:53:19;;;;;;;11.55;2.75;;;;;;;;;;5071544;28;20083;-74
2022/05/12 00:55:45;;;;;;;10.57;2.75;;;;;;;;;;5071531;28;20044;-74
2022/05/12 00:58:13;;;;;;;8.32;2.70;;;;;;;;;;5054852;28;20568;-74
2022/05/12 01:00:40;;;;;;;11.63;2.58;;;11.30;99.90;;;;;;5071340;28;20083;-74
2022/05/12 01:03:15;;;;;;;9.15;2.70;;;11.20;99.90;;;;;;5071411;28;20032;-74
2022/05/12 01:05:41;;;;;;;6.68;2.78;;;;;;;;;;5071566;28;20044;-74
2022/05/12 01:08:11;;;;;;;12.70;3.40;;;;;;;;;;5071047;28;20052;-74
2022/05/12 01:10:39;;;;;;;9.07;2.55;;;;;;;;;;5074426;28;20049;-73
2022/05/12 01:13:05;;;;;;;10.20;2.92;;;;;;;;;;5058348;28;20473;-74
2022/05/12 01:15:31;;;;;;;12.18;2.67;;;;;;;;;;5074844;28;20052;-73
2022/05/12 01:18:17;;;;;;;17.02;3.20;;;11.20;99.90;;;;;;5074779;28;20098;-73
2022/05/12 01:20:43;;;;;;;22.30;3.97;;;;;;;;;;5058399;28;20070;-73
2022/05/12 01:23:25;;;;;;;20.48;4.50;;;11.30;99.90;;;;;;5074661;28;20048;-73
2022/05/12 01:25:55;;;;;;;18.25;3.58;;;;;;;;;;5074688;28;20128;-73
2022/05/12 01:28:21;;;;;;;15.68;3.47;;;;;;;;;;5074560;28;20047;-74
2022/05/12 01:30:48;;;;;;;17.30;3.22;;;;;;;;;;5074829;28;20476;-73
2022/05/12 01:33:14;;;;;;;14.60;3.83;;;;;;;;;;5074501;28;20037;-73
2022/05/12 01:35:40;;;;;;;14.90;3.70;;;;;;;;;;5058008;28;20037;-74
2022/05/12 01:38:05;;;;;;;10.88;3.53;;;10.50;99.90;;;;;;5057698;28;20044;-73
2022/05/12 01:40:31;;;;;;;17.55;3.60;;;;;;;;;;5058106;28;20041;-73
2022/05/12 01:42:58;;;;;;;16.63;3.58;;;;;;;;;;5074689;28;20483;-73
2022/05/12 01:45:24;;;;;;;19.00;4.30;;;;;;;;;;5057723;28;20477;-73
2022/05/12 01:47:50;;;;;;;15.93;3.58;;;;;;;;;;5057704;28;20089;-73
2022/05/12 01:50:17;;;;;;;14.18;3.33;;;;;;;;;;5074328;28;20439;-73
2022/05/12 01:52:44;;;;;;;14.30;3.30;;;;;;;;;;5041013;28;20032;-74
2022/05/12 01:55:14;;;;;;;18.70;3.97;;;;;;;;;;5057471;28;20048;-73
2022/05/12 01:57:44;;;;;;;14.55;3.22;;;;;;;;;;5057236;28;20074;-73
2022/05/12 02:00:13;;;;;;;12.75;3.97;;;11.10;99.90;;;;;;5074360;28;20101;-73
2022/05/12 02:02:39;;;;;;;15.27;4.15;;;10.70;99.90;;;;;;5074262;28;20042;-73
2022/05/12 02:05:09;;;;;;;19.15;4.72;;;11.10;99.90;;;;;;5024388;28;20484;-73
2022/05/12 02:07:36;;;;;;;12.32;3.92;;;;;;;;;;5073868;28;20037;-74
2022/05/12 02:10:04;;;;;;;18.85;4.43;;;10.90;99.90;;;;;;5074154;28;20044;-73
2022/05/12 02:12:30;;;;;;;20.30;4.05;;;;;;;;;;5073741;28;20408;-73
2022/05/12 02:14:56;;;;;;;17.98;4.57;;;;;;;;;;5057186;28;20060;-73
2022/05/12 02:17:22;;;;;;;17.00;4.70;;;;;;;;;;5073696;28;20170;-73
2022/05/12 02:19:48;;;;;;;19.58;5.00;;;;;;;;;;5073716;28;20082;-73
2022/05/12 02:22:15;;;;;;;20.30;4.43;;;;;;;;;;5073387;28;20400;-73
2022/05/12 02:24:41;;;;;;;25.58;4.85;;;;;;;;;;5073618;28;20045;-73
2022/05/12 02:27:07;;;;;;;18.60;4.75;;;;;;;;;;5040498;28;20066;-73
2022/05/12 02:29:33;;;;;;;20.90;5.38;;;;;;;;;;5073534;28;20080;-72
2022/05/12 02:31:59;;;;;;;26.63;6.47;;;;;;;;;;5073860;28;20098;-73
2022/05/12 02:34:25;;;;;;;22.05;6.30;;;;;;;;;;5073531;28;20070;-73
2022/05/12 02:37:00;;;;;;;20.52;5.97;;;;;;;;;;5073303;28;20041;-73
2022/05/12 02:39:36;;;;;;;17.42;5.57;;;;;;;;;;5057980;28;20037;-73
2022/05/12 02:42:06;;;;;;;27.55;6.47;;;10.70;99.90;;;;;;5073237;28;20127;-73
2022/05/12 02:44:33;;;;;;;22.33;6.78;;;;;;;;;;5056618;28;20055;-73
2022/05/12 02:46:59;;;;;;;24.90;7.72;;;;;;;;;;5073265;28;20085;-73
2022/05/12 02:49:25;;;;;;;29.92;7.78;;;;;;;;;;5073000;28;20119;-73
2022/05/12 02:51:51;;;;;;;25.80;8.00;;;;;;;;;;5073399;28;20044;-73
2022/05/12 02:54:18;;;;;;;28.02;6.97;;;;;;;;;;5073631;28;20041;-73
2022/05/12 02:56:44;;;;;;;22.90;6.93;;;;;;;;;;5056388;28;20484;-73
2022/05/12 02:59:11;;;;;;;22.27;7.43;;;;;;;;;;5073229;28;20127;-73
2022/05/12 03:01:37;;;;;;;18.85;7.07;;;;;;;;;;5056345;28;20044;-73
2022/05/12 03:04:03;;;;;;;26.98;7.78;;;;;;;;;;5072781;28;20041;-73
2022/05/12 03:06:30;;;;;;;25.88;7.70;;;;;;;;;;5072837;28;20465;-73
2022/05/12 03:08:56;;;;;;;29.77;7.68;;;;;;;;;;5072573;28;20546;-72
2022/05/12 03:11:22;;;;;;;27.92;7.88;;;;;;;;;;5039602;28;20119;-72
2022/05/12 03:13:49;;;;;;;21.00;6.57;;;;;;;;;;5056570;28;20417;-73
2022/05/12 03:16:16;;;;;;;23.50;7.97;;;;;;;;;;5056126;28;20431;-73
2022/05/12 03:18:46;;;;;;;25.58;8.20;;;10.60;99.90;;;;;;5072638;28;20049;-73
2022/05/12 03:21:13;;;;;;;21.75;7.90;;;;;;;;;;5056107;28;20043;-73
2022/05/12 03:23:40;;;;;;;31.15;9.07;;;;;;;;;;5072556;28;20041;-73
2022/05/12 03:26:06;;;;;;;24.08;7.20;;;;;;;;;;5072768;28;20115;-72
2022/05/12 03:28:33;;;;;;;24.27;7.35;;;;;;;;;;5072405;28;20036;-73
2022/05/12 03:30:59;;;;;;;18.88;6.18;;;;;;;;;;5056072;28;20040;-72
2022/05/12 03:33:25;;;;;;;19.55;6.60;;;;;;;;;;5071404;28;20040;-72
2022/05/12 03:35:51;;;;;;;18.55;6.90;;;;;;;;;;5072148;28;20052;-73
2022/05/12 03:38:18;;;;;;;18.20;7.38;;;;;;;;;;5072136;28;20048;-73
2022/05/12 03:40:44;;;;;;;29.25;7.82;;;;;;;;;;5072177;28;20509;-73
2022/05/12 03:43:10;;;;;;;18.40;7.30;;;;;;;;;;5072342;28;20036;-72
2022/05/12 03:45:36;;;;;;;20.90;7.25;;;;;;;;;;5055498;28;20044;-73
2022/05/12 03:48:02;;;;;;;27.95;8.25;;;;;;;;;;5072454;28;20036;-73
2022/05/12 03:50:29;;;;;;;30.63;8.35;;;;;;;;;;5055745;28;20044;-73
2022/05/12 03:52:55;;;;;;;23.75;8.23;;;10.60;99.90;;;;;;5072120;28;20051;-73
2022/05/12 03:55:23;;;;;;;26.25;8.40;;;;;;;;;;5055530;28;20041;-72
2022/05/12 03:57:51;;;;;;;19.48;8.02;;;;;;;;;;5072088;28;20044;-73
2022/05/12 04:00:21;;;;;;;24.67;7.85;;;10.80;99.90;;;;;;5071985;28;20047;-73
2022/05/12 04:02:47;;;;;;;22.00;6.80;;;;;;;;;;5072066;28;20460;-73
2022/05/12 04:05:14;;;;;;;28.88;8.02;;;;;;;;;;5072009;28;20047;-73
2022/05/12 04:07:42;;;;;;;24.00;7.20;;;10.70;99.90;;;;;;5055461;28;20439;-73
2022/05/12 04:10:09;;;;;;;27.73;7.00;;;;;;;;;;5071965;28;20045;-73
2022/05/12 04:12:35;;;;;;;26.27;7.53;;;;;;;;;;5071885;28;20033;-73
2022/05/12 04:15:01;;;;;;;29.08;8.45;;;;;;;;;;5055464;28;20079;-73
2022/05/12 04:17:27;;;;;;;19.52;6.90;;;;;;;;;;5071659;28;20119;-73
2022/05/12 04:19:53;;;;;;;21.33;6.10;;;;;;;;;;5071783;28;20037;-73
2022/05/12 04:22:19;;;;;;;16.02;7.50;;;;;;;;;;5055090;28;20040;-73
2022/05/12 04:24:46;;;;;;;21.95;7.00;;;10.80;99.90;;;;;;5071667;28;20095;-73
2022/05/12 04:27:12;;;;;;;17.73;6.80;;;;;;;;;;5055153;28;20045;-73
2022/05/12 04:29:42;;;;;;;23.88;7.13;;;10.70;99.90;;;;;;5072069;28;20032;-73
2022/05/12 04:32:08;;;;;;;27.00;6.95;;;;;;;;;;5071792;28;20079;-74
2022/05/12 04:37:33;;;;;;;29.58;7.75;;;10.90;99.90;;;;;;5071432;28;20131;-74
2022/05/12 04:40:09;;;;;;;25.85;7.38;;;10.70;99.90;;;;;;5071604;28;20036;-73
2022/05/12 04:42:36;;;;;;;27.60;8.13;;;;;;;;;;5071533;28;20101;-74
2022/05/12 04:45:03;;;;;;;28.98;8.02;;;;;;;;;;5073909;28;20488;-73
2022/05/12 04:47:30;;;;;;;34.22;7.10;;;;;;;;;;5059044;28;20060;-73
2022/05/12 04:49:56;;;;;;;19.63;7.40;;;;;;;;;;5075623;28;20120;-73
2022/05/12 04:52:23;;;;;;;15.48;6.57;;;;;;;;;;5058870;28;20040;-73
2022/05/12 04:54:49;;;;;;;17.75;7.10;;;;;;;;;;5075592;28;20036;-73
2022/05/12 04:57:16;;;;;;;21.23;6.43;;;;;;;;;;5075322;28;20052;-73
2022/05/12 04:59:42;;;;;;;14.00;6.20;;;;;;;;;;5075207;28;20540;-73
2022/05/12 05:02:08;;;;;;;24.98;6.55;;;;;;;;;;5075187;28;20078;-73
2022/05/12 05:04:34;;;;;;;20.45;6.07;;;;;;;;;;5058410;28;20059;-73
2022/05/12 05:07:00;;;;;;;17.60;7.00;;;;;;;;;;5058426;28;20036;-72
2022/05/12 05:09:26;;;;;;;16.98;6.68;;;;;;;;;;5074937;28;20531;-73
2022/05/12 05:11:52;;;;;;;22.15;6.72;;;;;;;;;;5058366;28;20045;-73
2022/05/12 05:14:20;;;;;;;20.83;5.93;;;;;;;;;;5074872;28;20433;-72
2022/05/12 05:16:46;;;;;;;20.67;6.75;;;;;;;;;;5075012;28;20049;-73
2022/05/12 05:19:12;;;;;;;22.48;5.93;;;;;;;;;;5075040;28;20153;-73
2022/05/12 05:21:38;;;;;;;21.60;5.95;;;;;;;;;;5074727;28;20497;-73
2022/05/12 05:24:04;;;;;;;15.35;5.57;;;10.30;99.90;;;;;;5074802;28;20033;-73
2022/05/12 05:26:31;;;;;;;21.70;6.45;;;;;;;;;;5042026;28;20370;-73
2022/05/12 05:28:57;;;;;;;18.50;6.65;;;;;;;;;;5058161;28;20043;-73
2022/05/12 05:31:23;;;;;;;31.33;6.00;;;;;;;;;;5074589;28;20047;-73
2022/05/12 05:33:49;;;;;;;25.10;5.85;;;;;;;;;;5074868;28;20127;-73
2022/05/12 05:36:15;;;;;;;20.23;6.22;;;;;;;;;;5058059;28;20047;-73
2022/05/12 05:38:41;;;;;;;26.00;7.07;;;;;;;;;;5074375;28;20091;-73
2022/05/12 05:41:08;;;;;;;21.85;6.82;;;;;;;;;;5074543;28;20128;-73
2022/05/12 05:43:34;;;;;;;18.42;6.70;;;;;;;;;;5074635;28;20040;-73
2022/05/12 05:46:00;;;;;;;19.27;5.85;;;;;;;;;;5041370;28;20040;-73
2022/05/12 05:48:26;;;;;;;17.60;5.50;;;;;;;;;;5074358;28;20472;-73
2022/05/12 05:53:38;;;;;;;16.73;5.60;;;11.90;99.90;;;;;;5074534;28;20051;-74
2022/05/12 05:56:08;;;;;;;18.30;5.75;;;11.90;99.90;;;;;;5073419;28;20090;-73
2022/05/12 05:58:34;;;;;;;18.05;6.00;;;;;;;;;;5074576;28;20041;-73
2022/05/12 06:01:00;;;;;;;19.98;5.90;;;;;;;;;;5074331;28;20094;-74
2022/05/12 06:03:27;;;;;;;21.83;6.57;;;;;;;;;;5074023;28;20052;-73
2022/05/12 06:05:53;;;;;;;26.08;6.78;;;;;;;;;;5074401;28;20040;-73
2022/05/12 06:08:20;;;;;;;19.13;5.82;;;11.90;99.90;;;;;;5074028;28;20052;-74
2022/05/12 06:10:47;;;;;;;26.80;6.70;;;11.40;99.90;;;;;;5073943;28;20045;-73
2022/05/12 06:13:14;;;;;;;30.95;6.38;;;;;;;;;;5057401;28;20401;-73
2022/05/12 06:15:41;;;;;;;34.97;6.63;;;;;;;;;;5073759;28;20094;-73
2022/05/12 06:18:08;;;;;;;30.73;6.38;;;;;;;;;;5073906;28;20040;-73
2022/05/12 06:20:34;;;;;;;26.15;6.60;;;;;;;;;;5073736;28;20464;-73
2022/05/12 06:23:00;;;;;;;24.17;4.68;;;;;;;;;;5073663;28;20480;-73
2022/05/12 06:25:26;;;;;;;24.20;4.15;;;;;;;;;;5057464;28;20039;-73
2022/05/12 06:27:52;;;;;;;20.05;3.38;;;;;;;;;;5057349;28;20048;-73
2022/05/12 06:30:21;;;;;;;18.33;2.90;;;;;;;;;;5073799;28;20044;-73
2022/05/12 06:32:47;;;;;;;23.48;4.15;;;;;;;;;;5056845;28;20107;-73
2022/05/12 06:35:20;;;;;;;17.52;3.55;;;12.60;99.90;;;;;;5073292;28;20037;-73
2022/05/12 06:37:45;;;;;;;;;;;12.60;99.90;;;;;;5057101;28;20067;-73
2022/05/12 06:40:12;;;;;;;28.58;4.30;;;;;;;;;;5073228;28;19966;-74
2022/05/12 06:42:41;;;;;;;26.65;3.97;;;;;;;;;;5056595;28;20032;-74
2022/05/12 06:45:08;;;;;;;23.00;3.70;;;12.90;99.90;;;;;;5056697;28;20501;-74
2022/05/12 06:47:34;;;;;;;15.98;3.28;;;;;;;;;;5073264;28;20040;-74
2022/05/12 06:50:02;;;;;;;19.17;3.67;;;;;;;;;;5073204;28;20072;-74
2022/05/12 06:52:28;;;;;;;22.58;3.45;;;;;;;;;;5073478;28;20489;-75
2022/05/12 06:54:55;;;;;;;19.45;4.13;;;;;;;;;;5073309;28;20048;-74
2022/05/12 06:57:28;;;;;;;15.25;3.15;;;13.10;99.90;;;;;;5073251;28;20094;-73
2022/05/12 06:59:54;;;;;;;;;;;13.10;99.90;;;;;;5056705;28;20037;-74
2022/05/12 07:02:22;;;;;;;27.60;4.47;;;;;;;;;;5072937;28;19917;-74
2022/05/12 07:04:48;;;;;;;25.13;3.42;;;;;;;;;;5072762;28;20044;-74
2022/05/12 07:07:14;;;;;;;26.95;4.10;;;;;;;;;;5072858;28;20480;-73
2022/05/12 07:09:41;;;;;;;22.40;3.80;;;;;;;;;;5072447;28;20065;-74
2022/05/12 07:12:07;;;;;;;30.17;4.70;;;;;;;;;;5072671;28;20051;-73
2022/05/12 07:14:33;;;;;;;22.67;3.20;;;;;;;;;;5072729;28;20041;-72
2022/05/12 07:17:01;;;;;;;22.50;3.70;;;;;;;;;;5055887;28;20055;-73
2022/05/12 07:19:27;;;;;;;19.38;3.30;;;;;;;;;;5073798;28;20115;-73
2022/05/12 07:27:22;;;;;;;26.23;4.32;;;;;;;;;;5072524;28;20123;-73
2022/05/12 07:29:48;;;;;;;13.45;3.17;;;;;;;;;;5055840;28;20040;-74
2022/05/12 07:32:14;;;;;;;25.70;3.28;;;;;;;;;;5039187;28;20040;-73
2022/05/12 07:34:40;;;;;;;27.77;4.45;;;;;;;;;;5072284;28;20404;-73
2022/05/12 07:37:06;;;;;;;18.65;3.75;;;;;;;;;;5072170;28;20127;-73
2022/05/12 07:39:33;;;;;;;19.65;4.10;;;;;;;;;;5055652;28;20044;-73
2022/05/12 07:42:00;;;;;;;18.17;3.30;;;;;;;;;;5072265;28;20097;-74
2022/05/12 07:44:32;;;;;;;23.08;3.20;;;;;;;;;;5072314;28;20044;-74
2022/05/12 07:46:58;;;;;;;22.67;4.05;;;;;;;;;;5055956;28;20046;-73
2022/05/12 07:49:24;;;;;;;17.25;3.40;;;;;;;;;;5055366;28;20040;-73
2022/05/12 07:51:51;;;;;;;20.65;3.47;;;;;;;;;;5072431;28;20044;-72
2022/05/12 07:54:17;;;;;;;18.73;3.35;;;;;;;;;;5072096;28;20381;-73
2022/05/12 07:56:43;;;;;;;23.52;3.42;;;;;;;;;;5055713;28;20080;-73
2022/05/12 07:59:09;;;;;;;17.23;3.58;;;;;;;;;;5072114;28;20045;-73
2022/05/12 08:01:35;;;;;;;19.83;4.53;;;;;;;;;;5073347;28;20040;-73
2022/05/12 08:04:01;;;;;;;22.88;3.97;;;;;;;;;;5055178;28;20041;-73
2022/05/12 08:06:27;;;;;;;24.35;4.82;;;;;;;;;;5071940;28;20384;-73
2022/05/12 08:08:54;;;;;;;16.67;3.47;;;;;;;;;;5071696;28;20492;-74
2022/05/12 08:11:20;;;;;;;21.10;3.30;;;;;;;;;;5055360;28;20036;-73
2022/05/12 08:13:47;;;;;;;15.73;3.38;;;;;;;;;;5055065;28;20044;-73
2022/05/12 08:16:15;;;;;;;21.05;4.10;;;14.20;99.90;;;;;;5055107;28;20052;-73
2022/05/12 08:18:42;;;;;;;23.02;3.30;;;;;;;;;;5054827;28;20055;-74
2022/05/12 08:21:08;;;;;;;20.60;4.25;;;;;;;;;;5072155;28;20504;-74
2022/05/12 08:23:35;;;;;;;14.48;2.70;;;;;;;;;;5055186;28;20044;-74
2022/05/12 08:26:01;;;;;;;19.92;3.95;;;14.40;99.00;;;;;;5072073;28;20057;-74
2022/05/12 08:28:27;;;;;;;12.95;3.08;;;;;;;;;;5055108;28;20033;-73
2022/05/12 08:30:54;;;;;;;24.38;3.92;;;;;;;;;;5055063;28;20110;-73
2022/05/12 08:33:21;;;;;;;23.42;4.72;;;14.30;98.60;;;;;;5071701;28;20044;-74
2022/05/12 08:35:47;;;;;;;16.50;4.03;;;;;;;;;;5054987;28;20044;-74
2022/05/12 08:38:14;;;;;;;23.05;4.85;;;14.60;99.10;;;;;;5054787;28;20041;-74
2022/05/12 08:41:04;;;;;;;17.30;3.95;;;14.60;98.00;;;;;;5055436;28;20378;-74
2022/05/12 08:43:45;;;;;;;19.67;3.70;;;14.50;97.90;;;;;;5071331;28;20124;-73
2022/05/12 08:46:45;;;;;;;23.80;4.75;;;14.60;98.70;;;;;;5054915;28;20072;-74
2022/05/12 08:49:11;;;;;;;21.77;4.30;;;;;;;;;;5071627;28;20052;-74
2022/05/12 08:51:37;;;;;;;23.33;4.13;;;;;;;;;;5071574;28;20484;-73
2022/05/12 08:54:11;;;;;;;21.20;4.28;;;15.00;98.40;;;;;;5038444;28;20051;-74
2022/05/12 08:56:38;;;;;;;16.73;4.03;;;;;;;;;;5055069;28;20354;-74
2022/05/12 08:59:04;;;;;;;21.20;3.75;;;;;;;;;;5071561;28;20045;-74
2022/05/12 09:01:50;;;;;;;14.70;3.88;;;14.90;97.70;;;;;;5071585;28;20094;-74
2022/05/12 09:04:33;;;;;;;19.70;3.88;;;;;;;;;;5071597;28;20399;-74
2022/05/12 09:07:27;;;;;;;20.85;3.63;;;15.20;97.10;;;;;;5071545;28;20115;-73
2022/05/12 09:10:02;;;;;;;15.27;3.45;;;;;;;;;;5071457;28;20142;-73
2022/05/12 09:12:52;;;;;;;18.23;3.58;;;15.30;96.60;;;;;;5071381;28;20044;-73
2022/05/12 09:15:28;;;;;;;19.10;3.13;;;15.40;96.60;;;;;;5063791;28;20057;-73
2022/05/12 09:17:57;;;;;;;12.63;2.50;;;;;;;;;;5071289;28;20127;-73
2022/05/12 09:20:25;;;;;;;15.98;3.22;;;;;;;;;;5054522;28;20045;-73
2022/05/12 09:22:51;;;;;;;14.45;3.00;;;;;;;;;;5071199;28;20052;-74
2022/05/12 09:25:36;;;;;;;13.52;3.30;;;15.60;96.50;;;;;;5071457;28;20434;-74
2022/05/12 09:28:30;;;;;;;19.13;4.35;;;15.50;95.80;;;;;;5071213;28;20098;-73
2022/05/12 09:31:01;;;;;;;19.00;3.35;;;;;;;;;;5047870;28;20044;-74
2022/05/12 09:33:37;;;;;;;21.60;3.22;;;;;;;;;;5074661;28;20055;-74
2022/05/12 09:36:08;;;;;;;11.77;3.00;;;;;;;;;;5074563;28;20041;-73
2022/05/12 09:38:44;;;;;;;12.20;2.87;;;;;;;;;;5074725;28;20044;-74
2022/05/12 09:41:38;;;;;;;9.15;2.05;;;16.10;94.30;;;;;;5074498;28;20126;-74
2022/05/12 09:44:15;;;;;;;20.95;2.88;;;;;;;;;;5068547;28;20052;-74
2022/05/12 09:46:41;;;;;;;18.10;3.08;;;;;;;;;;5057775;28;20037;-73
2022/05/12 09:49:23;;;;;;;13.32;3.13;;;16.10;93.80;;;;;;5057817;28;20123;-74
2022/05/12 09:51:49;;;;;;;12.63;2.28;;;;;;;;;;5057985;28;20496;-72
2022/05/12 09:54:15;;;;;;;11.02;3.20;;;;;;;;;;5074458;28;20044;-73
2022/05/12 09:56:46;;;;;;;15.90;2.38;;;;;;;;;;5074300;28;20051;-73
2022/05/12 09:59:15;;;;;;;13.23;3.40;;;;;;;;;;5074457;28;20052;-74
2022/05/12 10:01:54;;;;;;;10.98;3.20;;;16.20;93.90;;;;;;5074365;28;20051;-73
2022/05/12 10:10:24;;;;;;;13.48;3.00;;;16.00;93.30;;;;;;5074163;28;20087;-73
2022/05/12 10:12:50;;;;;;;11.40;2.42;;;;;;;;;;5073910;28;20123;-73
2022/05/12 10:15:16;;;;;;;13.40;2.38;;;;;;;;;;5074088;28;20036;-73
2022/05/12 10:17:46;;;;;;;20.02;3.20;;;16.40;93.00;;;;;;5074297;28;20182;-73
2022/05/12 10:20:12;;;;;;;12.88;2.50;;;;;;;;;;5073863;28;20052;-74
2022/05/12 10:23:00;;;;;;;14.05;2.53;;;17.00;92.30;;;;;;5057099;28;20489;-74
2022/05/12 10:25:35;;;;;;;14.15;2.80;;;16.80;91.70;;;;;;5073925;28;20044;-75
2022/05/12 10:28:04;;;;;;;17.08;3.13;;;17.00;91.70;;;;;;5073581;28;20041;-74
2022/05/12 10:30:54;;;;;;;13.63;2.75;;;16.80;90.70;;;;;;5073942;28;20494;-74
2022/05/12 10:33:31;;;;;;;11.77;3.03;;;17.00;90.70;;;;;;5056921;28;20481;-74
2022/05/12 10:36:15;;;;;;;12.48;2.40;;;16.90;91.50;;;;;;5073607;28;20097;-74
2022/05/12 10:39:14;;;;;;;6.85;2.40;;;17.00;91.70;;;;;;5057157;28;20048;-73
2022/05/12 10:41:47;;;;;;;17.77;2.75;;;;;;;;;;5049767;28;20096;-72
2022/05/12 10:44:49;;;;;;;15.18;2.50;;;;;;;;;;5073188;28;20040;-72
2022/05/12 10:47:34;;;;;;;10.80;2.67;;;;;;;;;;5032404;28;20774;-73
2022/05/12 10:50:27;;;;;;;10.10;2.72;;;17.50;91.40;;;;;;5068741;28;20130;-73
2022/05/12 10:52:53;;;;;;;12.15;2.78;;;;;;;;;;5073297;28;20186;-72
2022/05/12 10:55:35;;;;;;;7.05;2.25;;;;;;;;;;5056387;28;20066;-72
2022/05/12 10:58:22;;;;;;;8.75;2.38;;;18.00;95.20;;;;;;5072982;28;20044;-73
2022/05/12 11:01:12;;;;;;;11.55;2.95;;;17.80;91.10;;;;;;5056364;28;20040;-72
2022/05/12 11:03:41;;;;;;;13.07;2.78;;;;;;;;;;5072878;28;20048;-73
2022/05/12 11:06:12;;;;;;;9.65;2.70;;;17.80;90.30;;;;;;5072863;28;20072;-73
2022/05/12 11:08:38;;;;;;;9.48;3.10;;;;;;;;;;5072655;28;20053;-73
2022/05/12 11:11:24;;;;;;;18.77;2.63;;;17.90;90.80;;;;;;5072639;28;20136;-73
2022/05/12 11:14:09;;;;;;;11.48;2.70;;;;;;;;;;5055796;28;20496;-73
2022/05/12 11:16:46;;;;;;;9.35;2.97;;;;;;;;;;5072785;28;20047;-73
2022/05/12 11:19:23;;;;;;;11.50;2.35;;;;;;;;;;5072746;28;20123;-72
2022/05/12 11:22:27;;;;;;;11.13;2.75;;;17.60;88.70;;;;;;5072502;28;20052;-73
2022/05/12 11:25:29;;;;;;;14.18;2.83;;;17.60;88.00;;;;;;5072448;28;20044;-73
2022/05/12 11:31:03;;;;;;;9.35;3.05;;;;;;;;;;5072402;28;20040;-74
2022/05/12 11:33:34;;;;;;;17.48;3.63;;;18.00;90.30;;;;;;5055778;28;20052;-74
2022/05/12 11:36:01;;;;;;;11.63;3.47;;;;;;;;;;5072638;28;20076;-74
2022/05/12 11:38:39;;;;;;;12.00;3.42;;;;;;;;;;5055730;28;20093;-74
2022/05/12 11:41:08;;;;;;;12.88;3.58;;;17.80;89.20;;;;;;5072534;28;20037;-74
2022/05/12 11:47:01;;;;;;;13.43;3.30;;;18.00;89.80;;;;;;5072253;28;20101;-74
2022/05/12 11:49:52;;;;;;;14.05;3.25;;;17.60;87.50;;;;;;5072170;28;20033;-73
2022/05/12 11:52:36;;;;;;;9.48;4.22;;;17.90;87.00;;;;;;5055612;28;20040;-73
2022/05/12 11:55:06;;;;;;;12.77;3.47;;;;;;;;;;5071425;28;20054;-72
2022/05/12 11:57:39;;;;;;;12.52;3.80;;;18.20;89.30;;;;;;5072269;28;20052;-73
2022/05/12 12:00:35;;;;;;;12.98;3.80;;;18.00;88.60;;;;;;5055373;28;20053;-73
2022/05/12 12:03:19;;;;;;;9.43;3.45;;;;;;;;;;5065151;28;20135;-74
2022/05/12 12:05:48;;;;;;;11.18;3.20;;;18.40;89.90;;;;;;5055384;28;20036;-74
2022/05/12 12:08:32;;;;;;;13.38;3.40;;;18.40;93.70;;;;;;5071632;28;20128;-73
2022/05/12 12:11:13;;;;;;;12.95;3.53;;;18.60;84.60;;;;;;5071756;28;20045;-74
2022/05/12 12:13:41;;;;;;;12.52;4.00;;;19.20;91.90;;;;;;5072094;28;20048;-74
2022/05/12 12:16:10;;;;;;;19.70;4.43;;;18.00;86.80;;;;;;5071671;28;20036;-74
2022/05/12 12:18:39;;;;;;;14.23;3.60;;;17.60;92.40;;;;;;5072123;28;20040;-75
2022/05/12 12:21:36;;;;;;;8.73;3.83;;;18.10;86.30;;;;;;5072012;28;20427;-74
2022/05/12 12:24:23;;;;;;;10.50;3.10;;;18.30;92.90;;;;;;5055114;28;20393;-74
2022/05/12 12:26:55;;;;;;;20.77;3.45;;;;;;;;;;5054962;28;20380;-74
2022/05/12 12:29:59;;;;;;;17.45;3.67;;;;;;;;;;5071680;28;20555;-75
2022/05/12 12:32:27;;;;;;;13.02;3.20;;;18.20;85.00;;;;;;5030629;28;20041;-74
2022/05/12 12:34:56;;;;;;;11.93;2.75;;;18.20;85.70;;;;;;5014640;28;20203;-74
2022/05/12 12:37:42;;;;;;;11.20;3.05;;;18.30;92.00;;;;;;5041931;28;20147;-75
2022/05/12 12:40:47;;;;;;;11.57;2.45;;;18.40;85.20;;;;;;5071624;28;20135;-74
2022/05/12 12:43:21;;;;;;;16.33;3.38;;;;;;;;;;5014164;28;20033;-75
2022/05/12 12:45:51;;;;;;;15.60;2.78;;;17.90;83.60;;;;;;5014294;28;20761;-75
2022/05/12 12:48:24;;;;;;;12.50;2.78;;;18.20;84.40;;;;;;5044658;28;20051;-75
2022/05/12 12:50:52;;;;;;;12.98;3.05;;;18.50;83.90;;;;;;5054849;28;20045;-75
2022/05/12 12:56:36;;;;;;;10.65;2.55;;;18.40;84.30;;;;;;5071441;28;20048;-74
2022/05/12 12:59:17;;;;;;;12.20;2.53;;;18.60;83.70;;;;;;5071475;28;20082;-74
2022/05/12 13:01:46;;;;;;;10.40;2.78;;;18.80;81.80;;;;;;5054970;28;20392;-74
2022/05/12 13:04:13;;;;;;;16.02;2.83;;;;;;;;;;5071279;28;20507;-73
2022/05/12 13:06:40;;;;;;;7.70;2.38;;;18.80;82.10;;;;;;5074471;28;20032;-74
2022/05/12 13:09:11;;;;;;;14.63;2.65;;;18.90;83.00;;;;;;5075277;28;20401;-74
2022/05/12 13:11:39;;;;;;;12.82;2.60;;;;;;;;;;5075409;28;20400;-75
2022/05/12 13:14:08;;;;;;;13.88;2.70;;;18.60;82.60;;;;;;5075170;28;20091;-75
2022/05/12 13:16:38;;;;;;;12.57;3.28;;;18.60;83.40;;;;;;5074837;28;20050;-74
2022/05/12 13:19:05;;;;;;;18.85;3.58;;;18.50;81.30;;;;;;5074902;28;20106;-74
2022/05/12 13:21:45;;;;;;;15.82;3.65;;;18.50;80.00;;;;;;5041486;28;20045;-74
2022/05/12 13:24:11;;;;;;;12.43;3.67;;;;;;;;;;5074983;28;20047;-75
2022/05/12 13:26:39;;;;;;;12.88;2.53;;;18.00;84.50;;;;;;5058108;28;20127;-75
2022/05/12 13:29:08;;;;;;;9.30;2.60;;;18.30;83.70;;;;;;5058520;28;20043;-74
2022/05/12 13:31:38;;;;;;;12.15;3.00;;;18.20;83.80;;;;;;5074674;28;20044;-74
2022/05/12 13:34:24;;;;;;;16.15;2.72;;;18.40;85.00;;;;;;5074671;28;20054;-75
2022/05/12 13:36:53;;;;;;;13.07;2.53;;;18.30;84.30;;;;;;5074692;28;20504;-74
2022/05/12 13:39:47;;;;;;;12.93;2.97;;;18.60;81.20;;;;;;5074791;28;20063;-75
2022/05/12 13:42:35;;;;;;;15.27;2.55;;;18.90;82.90;;;;;;5057995;28;20055;-75
2022/05/12 13:45:09;;;;;;;9.55;2.33;;;18.50;83.60;;;;;;5074542;28;20481;-75
2022/05/12 13:47:47;;;;;;;12.30;3.33;;;19.20;91.20;;;;;;5074582;28;20051;-75
2022/05/12 13:50:15;;;;;;;10.75;2.35;;;;;;;;;;5074658;28;20119;-75
2022/05/12 13:52:42;;;;;;;12.35;2.40;;;18.90;82.80;;;;;;5074316;28;20041;-75
2022/05/12 13:55:17;;;;;;;8.90;2.28;;;;;;;;;;5057573;28;20492;-75
2022/05/12 13:57:46;;;;;;;17.23;3.00;;;19.10;81.90;;;;;;5074164;28;20484;-75
2022/05/12 14:00:13;;;;;;;12.68;3.03;;;;;;;;;;5074240;28;20496;-74
2022/05/12 14:02:53;;;;;;;13.07;2.88;;;19.50;90.50;;;;;;5074044;28;20048;-74
2022/05/12 14:05:19;;;;;;;12.40;2.40;;;;;;;;;;5073933;28;20106;-74
2022/05/12 14:08:20;;;;;;;13.57;2.90;;;18.60;82.60;;;;;;5073819;28;20381;-74
2022/05/12 14:10:49;;;;;;;15.25;3.38;;;18.80;82.90;;;;;;5060179;28;20040;-75
2022/05/12 14:19:36;;;;;;;14.68;2.60;;;18.80;78.80;;;;;;5073717;28;20083;-75
2022/05/12 14:22:07;;;;;;;12.55;2.97;;;19.30;90.30;;;;;;5057105;28;20032;-75
2022/05/12 14:24:34;;;;;;;13.05;2.83;;;18.60;90.40;;;;;;5073698;28;20432;-75
2022/05/12 14:27:00;;;;;;;7.93;2.17;;;;;;;;;;5073829;28;20086;-75
2022/05/12 14:29:27;;;;;;;22.25;2.88;;;;;;;;;;5073661;28;20415;-74
2022/05/12 14:31:55;;;;;;;11.75;2.20;;;18.60;81.80;;;;;;5056816;28;20093;-74
2022/05/12 14:34:21;;;;;;;11.70;3.65;;;19.60;90.20;;;;;;5073567;28;20488;-73
2022/05/12 14:36:49;;;;;;;11.15;2.65;;;18.90;79.50;;;;;;5073445;28;20174;-74
2022/05/12 14:39:15;;;;;;;10.27;2.58;;;;;;;;;;5073502;28;20045;-74
2022/05/12 14:41:41;;;;;;;12.00;2.70;;;18.60;89.20;;;;;;5073742;28;20048;-74